sensor_id;sensor_type;location;lat;lon;timestamp;P1;durP1;ratioP1;P2;durP2;ratioP2
5585;SDS011;2815;54.094;12.112;2023-08-12T00:25:59;3.83;;;2.03;;
5585;SDS011;2815;54.094;12.112;2023-08-12T00:28:28;5.43;;;1.77;;
5585;SDS011;2815;54.094;12.112;2023-08-12T00:30:57;3.10;;;1.83;;
5585;SDS011;2815;54.094;12.112;2023-08-12T00:46:08;4.93;;;2.10;;
5585;SDS011;2815;54.094;12.112;2023-08-12T02:00:57;4.35;;;1.70;;
5585;SDS011;2815;54.094;12.112;2023-08-12T03:18:30;3.53;;;2.05;;
5585;SDS011;2815;54.094;12.112;2023-08-12T03:21:00;3.10;;;1.80;;
5585;SDS011;2815;54.094;12.112;2023-08-12T03:32:55;4.00;;;1.92;;
5585;SDS011;2815;54.094;12.112;2023-08-12T04:21:50;6.60;;;1.92;;
5585;SDS011;2815;54.094;12.112;2023-08-12T04:27:34;4.00;;;1.70;;
5585;SDS011;2815;54.094;12.112;2023-08-12T04:33:38;3.42;;;1.70;;
5585;SDS011;2815;54.094;12.112;2023-08-12T04:53:31;4.18;;;1.85;;
5585;SDS011;2815;54.094;12.112;2023-08-12T04:56:02;3.97;;;1.70;;
5585;SDS011;2815;54.094;12.112;2023-08-12T05:14:29;2.17;;;1.70;;
5585;SDS011;2815;54.094;12.112;2023-08-12T07:13:59;3.40;;;2.30;;
5585;SDS011;2815;54.094;12.112;2023-08-12T07:16:28;5.15;;;2.22;;
5585;SDS011;2815;54.094;12.112;2023-08-12T07:18:58;9.40;;;2.90;;
5585;SDS011;2815;54.094;12.112;2023-08-12T07:21:27;3.60;;;2.35;;
5585;SDS011;2815;54.094;12.112;2023-08-12T07:23:55;10.60;;;3.00;;
5585;SDS011;2815;54.094;12.112;2023-08-12T07:26:30;7.60;;;2.78;;
5585;SDS011;2815;54.094;12.112;2023-08-12T07:28:59;5.72;;;2.40;;
5585;SDS011;2815;54.094;12.112;2023-08-12T07:31:29;4.35;;;2.50;;
5585;SDS011;2815;54.094;12.112;2023-08-12T07:33:57;3.95;;;2.20;;
5585;SDS011;2815;54.094;12.112;2023-08-12T07:36:25;6.38;;;3.08;;
5585;SDS011;2815;54.094;12.112;2023-08-12T07:38:55;3.67;;;2.63;;
5585;SDS011;2815;54.094;12.112;2023-08-12T07:41:24;7.88;;;3.03;;
5585;SDS011;2815;54.094;12.112;2023-08-12T07:43:56;5.60;;;2.80;;
5585;SDS011;2815;54.094;12.112;2023-08-12T07:46:27;4.38;;;2.15;;
5585;SDS011;2815;54.094;12.112;2023-08-12T07:48:57;5.70;;;2.63;;
5585;SDS011;2815;54.094;12.112;2023-08-12T07:51:27;4.25;;;2.40;;
5585;SDS011;2815;54.094;12.112;2023-08-12T07:53:57;7.10;;;2.38;;
5585;SDS011;2815;54.094;12.112;2023-08-12T07:56:26;4.35;;;2.42;;
5585;SDS011;2815;54.094;12.112;2023-08-12T07:58:54;7.47;;;2.53;;
5585;SDS011;2815;54.094;12.112;2023-08-12T08:01:30;5.43;;;2.00;;
5585;SDS011;2815;54.094;12.112;2023-08-12T08:04:03;5.65;;;2.20;;
5585;SDS011;2815;54.094;12.112;2023-08-12T08:12:20;8.70;;;2.72;;
5585;SDS011;2815;54.094;12.112;2023-08-12T08:14:49;4.43;;;2.30;;
5585;SDS011;2815;54.094;12.112;2023-08-12T08:17:22;2.80;;;2.03;;
5585;SDS011;2815;54.094;12.112;2023-08-12T08:19:50;6.78;;;2.50;;
5585;SDS011;2815;54.094;12.112;2023-08-12T08:25:00;4.68;;;2.47;;
5585;SDS011;2815;54.094;12.112;2023-08-12T08:27:28;3.92;;;2.45;;
5585;SDS011;2815;54.094;12.112;2023-08-12T08:29:58;4.18;;;2.45;;
5585;SDS011;2815;54.094;12.112;2023-08-12T08:32:29;4.82;;;2.40;;
5585;SDS011;2815;54.094;12.112;2023-08-12T08:34:58;11.73;;;3.67;;
5585;SDS011;2815;54.094;12.112;2023-08-12T08:37:27;9.27;;;2.60;;
5585;SDS011;2815;54.094;12.112;2023-08-12T08:39:58;4.72;;;2.30;;
5585;SDS011;2815;54.094;12.112;2023-08-12T08:42:30;3.75;;;2.65;;
5585;SDS011;2815;54.094;12.112;2023-08-12T08:44:59;4.20;;;2.30;;
5585;SDS011;2815;54.094;12.112;2023-08-12T08:47:31;3.47;;;2.20;;
5585;SDS011;2815;54.094;12.112;2023-08-12T08:50:01;8.70;;;2.90;;
5585;SDS011;2815;54.094;12.112;2023-08-12T08:52:31;27.30;;;5.82;;
5585;SDS011;2815;54.094;12.112;2023-08-12T08:55:00;5.90;;;3.00;;
5585;SDS011;2815;54.094;12.112;2023-08-12T08:57:33;16.38;;;3.17;;
5585;SDS011;2815;54.094;12.112;2023-08-12T09:00:14;5.22;;;2.40;;
5585;SDS011;2815;54.094;12.112;2023-08-12T09:02:48;4.68;;;2.50;;
5585;SDS011;2815;54.094;12.112;2023-08-12T09:05:20;3.58;;;2.28;;
5585;SDS011;2815;54.094;12.112;2023-08-12T09:07:49;4.50;;;2.55;;
5585;SDS011;2815;54.094;12.112;2023-08-12T09:10:18;5.85;;;2.55;;
5585;SDS011;2815;54.094;12.112;2023-08-12T09:12:49;3.20;;;2.42;;
5585;SDS011;2815;54.094;12.112;2023-08-12T09:15:19;9.93;;;2.90;;
5585;SDS011;2815;54.094;12.112;2023-08-12T09:17:51;4.78;;;2.17;;
5585;SDS011;2815;54.094;12.112;2023-08-12T09:20:23;4.32;;;2.13;;
5585;SDS011;2815;54.094;12.112;2023-08-12T09:22:55;3.97;;;2.55;;
5585;SDS011;2815;54.094;12.112;2023-08-12T09:25:27;6.90;;;2.50;;
5585;SDS011;2815;54.094;12.112;2023-08-12T09:27:58;4.45;;;2.47;;
5585;SDS011;2815;54.094;12.112;2023-08-12T09:30:28;4.68;;;2.30;;
5585;SDS011;2815;54.094;12.112;2023-08-12T09:33:00;6.03;;;2.47;;
5585;SDS011;2815;54.094;12.112;2023-08-12T09:35:32;7.20;;;2.40;;
5585;SDS011;2815;54.094;12.112;2023-08-12T09:38:03;5.38;;;2.22;;
5585;SDS011;2815;54.094;12.112;2023-08-12T09:40:32;5.80;;;2.50;;
5585;SDS011;2815;54.094;12.112;2023-08-12T09:43:02;6.18;;;2.20;;
5585;SDS011;2815;54.094;12.112;2023-08-12T09:45:33;3.85;;;2.50;;
5585;SDS011;2815;54.094;12.112;2023-08-12T09:48:05;2.95;;;2.10;;
5585;SDS011;2815;54.094;12.112;2023-08-12T09:53:26;3.78;;;2.30;;
5585;SDS011;2815;54.094;12.112;2023-08-12T09:55:56;7.20;;;2.42;;
5585;SDS011;2815;54.094;12.112;2023-08-12T09:58:29;5.53;;;2.20;;
5585;SDS011;2815;54.094;12.112;2023-08-12T10:01:02;4.35;;;2.40;;
5585;SDS011;2815;54.094;12.112;2023-08-12T10:03:37;4.78;;;2.22;;
5585;SDS011;2815;54.094;12.112;2023-08-12T10:08:45;7.85;;;2.20;;
5585;SDS011;2815;54.094;12.112;2023-08-12T10:11:15;2.85;;;2.40;;
5585;SDS011;2815;54.094;12.112;2023-08-12T10:13:49;2.83;;;2.30;;
5585;SDS011;2815;54.094;12.112;2023-08-12T10:16:18;8.38;;;2.47;;
5585;SDS011;2815;54.094;12.112;2023-08-12T10:18:50;8.60;;;2.20;;
5585;SDS011;2815;54.094;12.112;2023-08-12T10:21:21;3.03;;;2.35;;
5585;SDS011;2815;54.094;12.112;2023-08-12T10:23:54;4.63;;;2.40;;
5585;SDS011;2815;54.094;12.112;2023-08-12T10:32:18;6.53;;;2.20;;
5585;SDS011;2815;54.094;12.112;2023-08-12T10:37:45;4.03;;;2.38;;
5585;SDS011;2815;54.094;12.112;2023-08-12T10:58:45;4.45;;;2.30;;
5585;SDS011;2815;54.094;12.112;2023-08-12T11:01:16;4.95;;;2.65;;
5585;SDS011;2815;54.094;12.112;2023-08-12T11:03:47;4.00;;;2.22;;
5585;SDS011;2815;54.094;12.112;2023-08-12T11:09:14;2.75;;;2.20;;
5585;SDS011;2815;54.094;12.112;2023-08-12T11:20:11;3.47;;;2.30;;
5585;SDS011;2815;54.094;12.112;2023-08-12T11:25:50;4.07;;;2.50;;
5585;SDS011;2815;54.094;12.112;2023-08-12T11:28:24;3.15;;;2.40;;
5585;SDS011;2815;54.094;12.112;2023-08-12T11:33:30;4.18;;;2.30;;
5585;SDS011;2815;54.094;12.112;2023-08-12T11:36:00;4.68;;;2.72;;
5585;SDS011;2815;54.094;12.112;2023-08-12T11:38:29;7.78;;;2.42;;
5585;SDS011;2815;54.094;12.112;2023-08-12T11:46:37;3.83;;;2.30;;
5585;SDS011;2815;54.094;12.112;2023-08-12T11:49:07;4.80;;;2.53;;
5585;SDS011;2815;54.094;12.112;2023-08-12T11:51:37;4.53;;;2.47;;
5585;SDS011;2815;54.094;12.112;2023-08-12T11:54:07;4.32;;;2.40;;
5585;SDS011;2815;54.094;12.112;2023-08-12T11:56:35;4.50;;;2.67;;
5585;SDS011;2815;54.094;12.112;2023-08-12T11:59:10;3.40;;;2.40;;
5585;SDS011;2815;54.094;12.112;2023-08-12T12:01:45;4.80;;;2.30;;
5585;SDS011;2815;54.094;12.112;2023-08-12T12:04:15;5.35;;;2.45;;
5585;SDS011;2815;54.094;12.112;2023-08-12T12:06:48;5.60;;;2.70;;
5585;SDS011;2815;54.094;12.112;2023-08-12T12:09:19;7.07;;;2.53;;
5585;SDS011;2815;54.094;12.112;2023-08-12T12:11:52;4.50;;;2.20;;
5585;SDS011;2815;54.094;12.112;2023-08-12T12:14:35;5.43;;;2.45;;
5585;SDS011;2815;54.094;12.112;2023-08-12T12:17:10;3.20;;;2.30;;
5585;SDS011;2815;54.094;12.112;2023-08-12T12:22:42;8.10;;;2.85;;
5585;SDS011;2815;54.094;12.112;2023-08-12T12:25:15;3.58;;;2.45;;
5585;SDS011;2815;54.094;12.112;2023-08-12T12:30:37;3.13;;;2.40;;
5585;SDS011;2815;54.094;12.112;2023-08-12T12:36:07;4.53;;;2.80;;
5585;SDS011;2815;54.094;12.112;2023-08-12T12:38:36;5.15;;;2.60;;
5585;SDS011;2815;54.094;12.112;2023-08-12T12:41:06;4.72;;;2.50;;
5585;SDS011;2815;54.094;12.112;2023-08-12T12:46:17;4.72;;;2.15;;
5585;SDS011;2815;54.094;12.112;2023-08-12T12:51:35;4.72;;;2.45;;
5585;SDS011;2815;54.094;12.112;2023-08-12T12:54:06;4.63;;;2.50;;
5585;SDS011;2815;54.094;12.112;2023-08-12T12:56:41;8.93;;;2.40;;
5585;SDS011;2815;54.094;12.112;2023-08-12T12:59:15;3.70;;;2.55;;
5585;SDS011;2815;54.094;12.112;2023-08-12T13:01:47;6.15;;;2.50;;
5585;SDS011;2815;54.094;12.112;2023-08-12T13:04:21;7.40;;;2.58;;
5585;SDS011;2815;54.094;12.112;2023-08-12T13:06:51;4.20;;;2.55;;
5585;SDS011;2815;54.094;12.112;2023-08-12T13:09:24;3.92;;;2.50;;
5585;SDS011;2815;54.094;12.112;2023-08-12T13:15:07;5.97;;;2.25;;
5585;SDS011;2815;54.094;12.112;2023-08-12T13:23:15;5.25;;;2.50;;
5585;SDS011;2815;54.094;12.112;2023-08-12T13:28:37;4.07;;;2.20;;
5585;SDS011;2815;54.094;12.112;2023-08-12T13:31:07;3.75;;;2.42;;
5585;SDS011;2815;54.094;12.112;2023-08-12T13:48:07;8.27;;;2.78;;
5585;SDS011;2815;54.094;12.112;2023-08-12T13:56:33;6.13;;;2.20;;
5585;SDS011;2815;54.094;12.112;2023-08-12T13:59:02;4.45;;;2.30;;
5585;SDS011;2815;54.094;12.112;2023-08-12T14:01:33;6.35;;;2.50;;
5585;SDS011;2815;54.094;12.112;2023-08-12T14:23:38;4.13;;;2.53;;
5585;SDS011;2815;54.094;12.112;2023-08-12T14:32:20;5.17;;;2.70;;
5585;SDS011;2815;54.094;12.112;2023-08-12T14:37:59;4.13;;;2.47;;
5585;SDS011;2815;54.094;12.112;2023-08-12T14:46:26;7.25;;;2.58;;
5585;SDS011;2815;54.094;12.112;2023-08-12T14:58:29;3.90;;;2.40;;
5585;SDS011;2815;54.094;12.112;2023-08-12T15:04:14;4.50;;;2.42;;
5585;SDS011;2815;54.094;12.112;2023-08-12T15:12:52;3.22;;;2.25;;
5585;SDS011;2815;54.094;12.112;2023-08-12T15:40:40;4.90;;;3.05;;
5585;SDS011;2815;54.094;12.112;2023-08-12T16:01:13;3.58;;;2.63;;
5585;SDS011;2815;54.094;12.112;2023-08-12T17:10:22;7.50;;;3.20;;
5585;SDS011;2815;54.094;12.112;2023-08-12T17:12:52;7.95;;;3.50;;
5585;SDS011;2815;54.094;12.112;2023-08-12T17:15:29;7.00;;;3.30;;
5585;SDS011;2815;54.094;12.112;2023-08-12T17:33:29;7.15;;;3.67;;
5585;SDS011;2815;54.094;12.112;2023-08-12T17:35:59;5.53;;;3.40;;
5585;SDS011;2815;54.094;12.112;2023-08-12T17:38:31;7.03;;;3.30;;
5585;SDS011;2815;54.094;12.112;2023-08-12T17:41:01;6.97;;;4.20;;
5585;SDS011;2815;54.094;12.112;2023-08-12T17:43:34;6.82;;;3.58;;
5585;SDS011;2815;54.094;12.112;2023-08-12T17:46:04;6.03;;;3.47;;
5585;SDS011;2815;54.094;12.112;2023-08-12T17:48:36;7.47;;;3.78;;
5585;SDS011;2815;54.094;12.112;2023-08-12T17:51:05;7.35;;;3.78;;
5585;SDS011;2815;54.094;12.112;2023-08-12T17:53:41;5.80;;;3.78;;
5585;SDS011;2815;54.094;12.112;2023-08-12T17:56:13;5.40;;;3.85;;
5585;SDS011;2815;54.094;12.112;2023-08-12T17:58:43;5.80;;;4.03;;
5585;SDS011;2815;54.094;12.112;2023-08-12T18:01:14;6.38;;;4.05;;
5585;SDS011;2815;54.094;12.112;2023-08-12T18:03:45;7.57;;;3.55;;
5585;SDS011;2815;54.094;12.112;2023-08-12T18:06:14;9.57;;;4.32;;
5585;SDS011;2815;54.094;12.112;2023-08-12T18:08:43;8.70;;;4.82;;
5585;SDS011;2815;54.094;12.112;2023-08-12T18:11:13;8.82;;;4.78;;
5585;SDS011;2815;54.094;12.112;2023-08-12T18:16:14;7.55;;;3.92;;
5585;SDS011;2815;54.094;12.112;2023-08-12T18:21:28;7.47;;;3.88;;
5585;SDS011;2815;54.094;12.112;2023-08-12T18:23:57;7.03;;;3.80;;
5585;SDS011;2815;54.094;12.112;2023-08-12T18:26:26;7.32;;;3.97;;
5585;SDS011;2815;54.094;12.112;2023-08-12T18:28:56;6.88;;;4.20;;
5585;SDS011;2815;54.094;12.112;2023-08-12T18:31:27;7.95;;;4.72;;
5585;SDS011;2815;54.094;12.112;2023-08-12T18:33:58;8.10;;;3.92;;
5585;SDS011;2815;54.094;12.112;2023-08-12T18:36:26;5.93;;;4.13;;
5585;SDS011;2815;54.094;12.112;2023-08-12T18:41:51;5.50;;;3.80;;
5585;SDS011;2815;54.094;12.112;2023-08-12T18:44:20;6.95;;;4.03;;
5585;SDS011;2815;54.094;12.112;2023-08-12T18:46:49;7.05;;;4.22;;
5585;SDS011;2815;54.094;12.112;2023-08-12T18:49:19;6.82;;;4.20;;
5585;SDS011;2815;54.094;12.112;2023-08-12T18:51:51;6.57;;;4.65;;
5585;SDS011;2815;54.094;12.112;2023-08-12T18:54:19;7.93;;;4.63;;
5585;SDS011;2815;54.094;12.112;2023-08-12T18:56:51;6.85;;;4.40;;
5585;SDS011;2815;54.094;12.112;2023-08-12T18:59:20;8.48;;;4.72;;
5585;SDS011;2815;54.094;12.112;2023-08-12T19:01:50;6.72;;;4.20;;
5585;SDS011;2815;54.094;12.112;2023-08-12T19:04:23;7.50;;;4.20;;
5585;SDS011;2815;54.094;12.112;2023-08-12T19:06:55;8.38;;;4.00;;
5585;SDS011;2815;54.094;12.112;2023-08-12T19:09:24;8.27;;;4.40;;
5585;SDS011;2815;54.094;12.112;2023-08-12T19:11:52;7.65;;;4.45;;
5585;SDS011;2815;54.094;12.112;2023-08-12T19:14:21;8.52;;;4.45;;
5585;SDS011;2815;54.094;12.112;2023-08-12T19:16:50;8.25;;;4.93;;
5585;SDS011;2815;54.094;12.112;2023-08-12T19:22:17;9.50;;;4.70;;
5585;SDS011;2815;54.094;12.112;2023-08-12T19:24:51;7.72;;;4.88;;
5585;SDS011;2815;54.094;12.112;2023-08-12T19:33:07;9.63;;;5.70;;
5585;SDS011;2815;54.094;12.112;2023-08-12T20:00:58;6.47;;;4.10;;
5585;SDS011;2815;54.094;12.112;2023-08-12T20:09:28;5.47;;;4.05;;
5585;SDS011;2815;54.094;12.112;2023-08-12T20:29:52;5.00;;;3.63;;
5585;SDS011;2815;54.094;12.112;2023-08-12T20:35:40;3.72;;;3.13;;
5585;SDS011;2815;54.094;12.112;2023-08-12T20:47:39;2.97;;;2.42;;
5585;SDS011;2815;54.094;12.112;2023-08-12T20:53:04;2.63;;;1.95;;
5585;SDS011;2815;54.094;12.112;2023-08-12T20:58:51;3.25;;;1.85;;
5585;SDS011;2815;54.094;12.112;2023-08-12T21:04:24;2.63;;;1.73;;
5585;SDS011;2815;54.094;12.112;2023-08-12T21:10:05;4.10;;;1.93;;
5585;SDS011;2815;54.094;12.112;2023-08-12T21:12:36;2.10;;;1.90;;
5585;SDS011;2815;54.094;12.112;2023-08-12T21:30:20;4.05;;;3.10;;
